Virgie Cenac — WDC2765 — position and weather

sailwx.info

Track history (hours):
 
Tides and Currents Weather Stations Pressure Air Temp Water Temp Dewpoint Dewpoint Depression Visibility Wind Speed Wind Dir Waves Ship Positions

Virgie Cenac

Owner: Cenac Marine Transportation, Inc., Houma, LA. More information available from US FCC via Universal Licensing System and Coast Guard Vessel Documentation Center.

Last reported at 2016-Sep-25 04:33 UTC. Time now 2016-Sep-25 07:10 UTC.
Position N 29°36' W 090°40'.

Length 18 m; draft 3 m.

Type: Towing. MMSI: 366997430.

Date/timePositionNaut miles runAvg speedWind from/ knotsBaromVisibWave heightAir tempDewpointWater temp
2016-Sep-25 04:33N 29°36' W 090°40'0 0.0
2016-Sep-25 00:33N 29°36' W 090°40'0 0.0
2016-Sep-24 22:34N 29°36' W 090°40'4 3.5
2016-Sep-24 21:34N 29°33' W 090°43'3 1.7
2016-Sep-24 19:33N 29°37' W 090°42'2 2.3
2016-Sep-24 18:33N 29°36' W 090°40'0 0.0
2016-Sep-24 17:33N 29°36' W 090°40'0 0.0
2016-Sep-24 16:19N 29°36' W 090°40'0 0.1
2016-Sep-24 14:33N 29°36' W 090°40'2 0.8
2016-Sep-24 12:33N 29°35' W 090°38'1 0.7
2016-Sep-24 10:34N 29°36' W 090°40'0 0.0
2016-Sep-24 09:34N 29°36' W 090°40'0 0.0
2016-Sep-24 03:33N 29°36' W 090°40'0 0.0
2016-Sep-24 02:33N 29°36' W 090°40'0 0.0
2016-Sep-24 01:33N 29°36' W 090°40'0 0.0
2016-Sep-24 00:33N 29°36' W 090°40'0 0.0
2016-Sep-23 19:30N 29°36' W 090°40'0 0.0
2016-Sep-23 17:34N 29°36' W 090°40'3 3.0
2016-Sep-23 16:32N 29°35' W 090°37'6 0.6
2016-Sep-23 06:22N 29°34' W 090°30'12 6.5
2016-Sep-23 04:33N 29°35' W 090°43'1 0.8
2016-Sep-23 03:33N 29°34' W 090°43'0 0.0
2016-Sep-23 02:34N 29°34' W 090°43'0 0.0
2016-Sep-23 01:33N 29°34' W 090°43'0 0.0
2016-Sep-23 00:34N 29°34' W 090°43'0 0.0
2016-Sep-22 23:34N 29°34' W 090°43'0 0.0
2016-Sep-22 20:34N 29°34' W 090°43'0 0.0
2016-Sep-22 12:33N 29°34' W 090°43'0 0.0
2016-Sep-22 04:34N 29°34' W 090°43'0 0.0
2016-Sep-22 03:33N 29°34' W 090°43'0 0.0
2016-Sep-22 00:33N 29°34' W 090°43'0 0.0
2016-Sep-21 23:34N 29°34' W 090°43'0 0.0
2016-Sep-21 22:34N 29°34' W 090°43'1 0.3
2016-Sep-21 19:33N 29°33' W 090°42'9 0.3
2016-Sep-20 14:21N 29°24' W 090°44'7 8.3
2016-Sep-20 13:33N 29°31' W 090°43'3 1.1
2016-Sep-20 10:34N 29°34' W 090°43'0 0.0
2016-Sep-20 08:34N 29°34' W 090°43'0 0.0
2016-Sep-20 07:34N 29°34' W 090°43'0 0.0
2016-Sep-20 06:34N 29°34' W 090°43'7 1.7
2016-Sep-20 02:34N 29°28' W 090°43'8 2.8
2016-Sep-19 23:34N 29°36' W 090°43'8 1.2
2016-Sep-19 16:34N 29°34' W 090°33'6 3.0
2016-Sep-19 14:34N 29°36' W 090°40'0 0.0
2016-Sep-19 13:34N 29°36' W 090°40'0 0.1
2016-Sep-19 12:31N 29°36' W 090°40'0 0.0
2016-Sep-19 06:27N 29°36' W 090°40'0 0.0
2016-Sep-19 00:32N 29°36' W 090°40'8 0.3
2016-Sep-17 20:05N 29°34' W 090°30'6 7.4
2016-Sep-17 19:16N 29°35' W 090°37'  
Track history (hours):
 
Tides and Currents Weather Stations Pressure Air Temp Water Temp Dewpoint Dewpoint Depression Visibility Wind Speed Wind Dir Waves Ship Positions

Virgie Cenac

Owner: Cenac Marine Transportation, Inc., Houma, LA. More information available from US FCC via Universal Licensing System and Coast Guard Vessel Documentation Center.

Last reported at 2016-Sep-25 04:33 UTC. Time now 2016-Sep-25 07:10 UTC.
Position N 29°36' W 090°40'.

Length 18 m; draft 3 m.

Type: Towing. MMSI: 366997430.

Date/timePositionNaut miles runAvg speedWind from/ knotsBaromVisibWave heightAir tempDewpointWater temp
2016-Sep-25 04:33N 29°36' W 090°40'0 0.0
2016-Sep-25 00:33N 29°36' W 090°40'0 0.0
2016-Sep-24 22:34N 29°36' W 090°40'4 3.5
2016-Sep-24 21:34N 29°33' W 090°43'3 1.7
2016-Sep-24 19:33N 29°37' W 090°42'2 2.3
2016-Sep-24 18:33N 29°36' W 090°40'0 0.0
2016-Sep-24 17:33N 29°36' W 090°40'0 0.0
2016-Sep-24 16:19N 29°36' W 090°40'0 0.1
2016-Sep-24 14:33N 29°36' W 090°40'2 0.8
2016-Sep-24 12:33N 29°35' W 090°38'1 0.7
2016-Sep-24 10:34N 29°36' W 090°40'0 0.0
2016-Sep-24 09:34N 29°36' W 090°40'0 0.0
2016-Sep-24 03:33N 29°36' W 090°40'0 0.0
2016-Sep-24 02:33N 29°36' W 090°40'0 0.0
2016-Sep-24 01:33N 29°36' W 090°40'0 0.0
2016-Sep-24 00:33N 29°36' W 090°40'0 0.0
2016-Sep-23 19:30N 29°36' W 090°40'0 0.0
2016-Sep-23 17:34N 29°36' W 090°40'3 3.0
2016-Sep-23 16:32N 29°35' W 090°37'6 0.6
2016-Sep-23 06:22N 29°34' W 090°30'12 6.5
2016-Sep-23 04:33N 29°35' W 090°43'1 0.8
2016-Sep-23 03:33N 29°34' W 090°43'0 0.0
2016-Sep-23 02:34N 29°34' W 090°43'0 0.0
2016-Sep-23 01:33N 29°34' W 090°43'0 0.0
2016-Sep-23 00:34N 29°34' W 090°43'0 0.0
2016-Sep-22 23:34N 29°34' W 090°43'0 0.0
2016-Sep-22 20:34N 29°34' W 090°43'0 0.0
2016-Sep-22 12:33N 29°34' W 090°43'0 0.0
2016-Sep-22 04:34N 29°34' W 090°43'0 0.0
2016-Sep-22 03:33N 29°34' W 090°43'0 0.0
2016-Sep-22 00:33N 29°34' W 090°43'0 0.0
2016-Sep-21 23:34N 29°34' W 090°43'0 0.0
2016-Sep-21 22:34N 29°34' W 090°43'1 0.3
2016-Sep-21 19:33N 29°33' W 090°42'9 0.3
2016-Sep-20 14:21N 29°24' W 090°44'7 8.3
2016-Sep-20 13:33N 29°31' W 090°43'3 1.1
2016-Sep-20 10:34N 29°34' W 090°43'0 0.0
2016-Sep-20 08:34N 29°34' W 090°43'0 0.0
2016-Sep-20 07:34N 29°34' W 090°43'0 0.0
2016-Sep-20 06:34N 29°34' W 090°43'7 1.7
2016-Sep-20 02:34N 29°28' W 090°43'8 2.8
2016-Sep-19 23:34N 29°36' W 090°43'8 1.2
2016-Sep-19 16:34N 29°34' W 090°33'6 3.0
2016-Sep-19 14:34N 29°36' W 090°40'0 0.0
2016-Sep-19 13:34N 29°36' W 090°40'0 0.1
2016-Sep-19 12:31N 29°36' W 090°40'0 0.0
2016-Sep-19 06:27N 29°36' W 090°40'0 0.0
2016-Sep-19 00:32N 29°36' W 090°40'8 0.3
2016-Sep-17 20:05N 29°34' W 090°30'6 7.4
2016-Sep-17 19:16N 29°35' W 090°37'  

Dump ship's entire track history